sensor_id;sensor_type;location;lat;lon;timestamp;temperature;humidity
54960;DHT22;40860;51.710;8.736;2023-02-13T00:03:47;7.60;99.90
54960;DHT22;40860;51.710;8.736;2023-02-13T00:07:50;7.50;99.90
54960;DHT22;40860;51.710;8.736;2023-02-13T00:11:54;7.50;99.90
54960;DHT22;40860;51.710;8.736;2023-02-13T00:15:59;7.50;99.90
54960;DHT22;40860;51.710;8.736;2023-02-13T00:20:03;7.50;99.90
54960;DHT22;40860;51.710;8.736;2023-02-13T00:24:06;7.50;99.90
54960;DHT22;40860;51.710;8.736;2023-02-13T00:28:10;7.50;99.90
54960;DHT22;40860;51.710;8.736;2023-02-13T00:32:13;7.50;99.90
54960;DHT22;40860;51.710;8.736;2023-02-13T00:36:18;7.50;99.90
54960;DHT22;40860;51.710;8.736;2023-02-13T00:40:21;7.50;99.90
54960;DHT22;40860;51.710;8.736;2023-02-13T00:44:25;7.50;99.90
54960;DHT22;40860;51.710;8.736;2023-02-13T00:48:30;7.50;99.90
54960;DHT22;40860;51.710;8.736;2023-02-13T00:52:33;7.50;99.90
54960;DHT22;40860;51.710;8.736;2023-02-13T00:56:36;7.50;99.90
54960;DHT22;40860;51.710;8.736;2023-02-13T01:00:41;7.50;99.90
54960;DHT22;40860;51.710;8.736;2023-02-13T01:04:44;7.50;99.90
54960;DHT22;40860;51.710;8.736;2023-02-13T01:08:47;7.50;99.90
54960;DHT22;40860;51.710;8.736;2023-02-13T01:12:50;7.40;99.90
54960;DHT22;40860;51.710;8.736;2023-02-13T01:16:54;7.40;99.90
54960;DHT22;40860;51.710;8.736;2023-02-13T01:20:59;7.40;99.90
54960;DHT22;40860;51.710;8.736;2023-02-13T01:25:02;7.40;99.90
54960;DHT22;40860;51.710;8.736;2023-02-13T01:29:05;7.40;99.90
54960;DHT22;40860;51.710;8.736;2023-02-13T01:33:10;7.40;99.90
54960;DHT22;40860;51.710;8.736;2023-02-13T01:37:13;7.30;99.90
54960;DHT22;40860;51.710;8.736;2023-02-13T01:41:16;7.30;99.90
54960;DHT22;40860;51.710;8.736;2023-02-13T01:45:22;7.30;99.90
54960;DHT22;40860;51.710;8.736;2023-02-13T01:49:27;7.30;99.90
54960;DHT22;40860;51.710;8.736;2023-02-13T01:53:32;7.30;99.90
54960;DHT22;40860;51.710;8.736;2023-02-13T01:57:38;7.20;99.90
54960;DHT22;40860;51.710;8.736;2023-02-13T02:01:42;7.20;99.90
54960;DHT22;40860;51.710;8.736;2023-02-13T02:05:48;7.20;99.90
54960;DHT22;40860;51.710;8.736;2023-02-13T02:09:54;7.20;99.90
54960;DHT22;40860;51.710;8.736;2023-02-13T02:13:57;7.20;99.90
54960;DHT22;40860;51.710;8.736;2023-02-13T02:18:13;7.20;99.90
54960;DHT22;40860;51.710;8.736;2023-02-13T02:27:17;7.10;99.90
54960;DHT22;40860;51.710;8.736;2023-02-13T02:31:54;7.10;99.90
54960;DHT22;40860;51.710;8.736;2023-02-13T02:36:14;7.10;99.90
54960;DHT22;40860;51.710;8.736;2023-02-13T02:40:26;7.10;99.90
54960;DHT22;40860;51.710;8.736;2023-02-13T02:44:37;7.10;99.90
54960;DHT22;40860;51.710;8.736;2023-02-13T02:48:49;7.10;99.90
54960;DHT22;40860;51.710;8.736;2023-02-13T02:53:25;7.10;99.90
54960;DHT22;40860;51.710;8.736;2023-02-13T02:57:31;7.10;99.90
54960;DHT22;40860;51.710;8.736;2023-02-13T03:01:50;7.10;99.90
54960;DHT22;40860;51.710;8.736;2023-02-13T03:06:15;7.10;99.90
54960;DHT22;40860;51.710;8.736;2023-02-13T03:10:25;7.10;99.90
54960;DHT22;40860;51.710;8.736;2023-02-13T03:14:46;7.10;99.90
54960;DHT22;40860;51.710;8.736;2023-02-13T03:18:52;7.10;99.90
54960;DHT22;40860;51.710;8.736;2023-02-13T03:23:33;7.10;99.90
54960;DHT22;40860;51.710;8.736;2023-02-13T03:27:45;7.10;99.90
54960;DHT22;40860;51.710;8.736;2023-02-13T03:32:14;7.10;99.90
54960;DHT22;40860;51.710;8.736;2023-02-13T03:36:31;7.00;99.90
54960;DHT22;40860;51.710;8.736;2023-02-13T03:40:57;7.10;99.90
54960;DHT22;40860;51.710;8.736;2023-02-13T03:45:24;7.00;99.90
54960;DHT22;40860;51.710;8.736;2023-02-13T03:49:48;7.00;99.90
54960;DHT22;40860;51.710;8.736;2023-02-13T03:54:15;7.00;99.90
54960;DHT22;40860;51.710;8.736;2023-02-13T03:58:26;7.00;99.90
54960;DHT22;40860;51.710;8.736;2023-02-13T04:02:55;7.00;99.90
54960;DHT22;40860;51.710;8.736;2023-02-13T04:07:00;7.00;99.90
54960;DHT22;40860;51.710;8.736;2023-02-13T04:11:09;7.00;99.90
54960;DHT22;40860;51.710;8.736;2023-02-13T04:15:20;7.00;99.90
54960;DHT22;40860;51.710;8.736;2023-02-13T04:19:24;7.00;99.90
54960;DHT22;40860;51.710;8.736;2023-02-13T04:23:28;7.00;99.90
54960;DHT22;40860;51.710;8.736;2023-02-13T04:27:31;7.00;99.90
54960;DHT22;40860;51.710;8.736;2023-02-13T04:31:35;7.00;99.90
54960;DHT22;40860;51.710;8.736;2023-02-13T04:35:38;6.90;99.90
54960;DHT22;40860;51.710;8.736;2023-02-13T04:39:41;6.90;99.90
54960;DHT22;40860;51.710;8.736;2023-02-13T04:43:43;6.90;99.90
54960;DHT22;40860;51.710;8.736;2023-02-13T04:47:50;6.80;99.90
54960;DHT22;40860;51.710;8.736;2023-02-13T04:51:56;6.80;99.90
54960;DHT22;40860;51.710;8.736;2023-02-13T04:55:59;6.80;99.90
54960;DHT22;40860;51.710;8.736;2023-02-13T05:00:02;6.70;99.90
54960;DHT22;40860;51.710;8.736;2023-02-13T05:04:07;6.70;99.90
54960;DHT22;40860;51.710;8.736;2023-02-13T05:08:11;6.60;99.90
54960;DHT22;40860;51.710;8.736;2023-02-13T05:12:14;6.60;99.90
54960;DHT22;40860;51.710;8.736;2023-02-13T05:16:17;6.60;99.90
54960;DHT22;40860;51.710;8.736;2023-02-13T05:20:21;6.60;99.90
54960;DHT22;40860;51.710;8.736;2023-02-13T05:24:24;6.60;99.90
54960;DHT22;40860;51.710;8.736;2023-02-13T05:28:27;6.60;99.90
54960;DHT22;40860;51.710;8.736;2023-02-13T05:32:48;6.60;99.90
54960;DHT22;40860;51.710;8.736;2023-02-13T05:36:53;6.50;99.90
54960;DHT22;40860;51.710;8.736;2023-02-13T05:40:57;6.50;99.90
54960;DHT22;40860;51.710;8.736;2023-02-13T05:45:00;6.50;99.90
54960;DHT22;40860;51.710;8.736;2023-02-13T05:49:03;6.50;99.90
54960;DHT22;40860;51.710;8.736;2023-02-13T05:53:07;6.50;99.90
54960;DHT22;40860;51.710;8.736;2023-02-13T05:57:10;6.50;99.90
54960;DHT22;40860;51.710;8.736;2023-02-13T06:01:13;6.50;99.90
54960;DHT22;40860;51.710;8.736;2023-02-13T06:05:16;6.50;99.90
54960;DHT22;40860;51.710;8.736;2023-02-13T06:09:20;6.50;99.90
54960;DHT22;40860;51.710;8.736;2023-02-13T06:13:23;6.50;99.90
54960;DHT22;40860;51.710;8.736;2023-02-13T06:17:26;6.40;99.90
54960;DHT22;40860;51.710;8.736;2023-02-13T06:21:28;6.40;99.90
54960;DHT22;40860;51.710;8.736;2023-02-13T06:25:33;6.40;99.90
54960;DHT22;40860;51.710;8.736;2023-02-13T06:29:36;6.50;99.90
54960;DHT22;40860;51.710;8.736;2023-02-13T06:33:39;6.50;99.90
54960;DHT22;40860;51.710;8.736;2023-02-13T06:37:42;6.50;99.90
54960;DHT22;40860;51.710;8.736;2023-02-13T06:41:46;6.40;99.90
54960;DHT22;40860;51.710;8.736;2023-02-13T06:45:49;6.50;99.90
54960;DHT22;40860;51.710;8.736;2023-02-13T06:49:54;6.50;99.90
54960;DHT22;40860;51.710;8.736;2023-02-13T06:53:57;6.40;99.90
54960;DHT22;40860;51.710;8.736;2023-02-13T06:58:01;6.40;99.90
54960;DHT22;40860;51.710;8.736;2023-02-13T07:02:04;6.40;99.90
54960;DHT22;40860;51.710;8.736;2023-02-13T07:06:07;6.40;99.90
54960;DHT22;40860;51.710;8.736;2023-02-13T07:10:11;6.40;99.90
54960;DHT22;40860;51.710;8.736;2023-02-13T07:14:16;6.40;99.90
54960;DHT22;40860;51.710;8.736;2023-02-13T07:18:18;6.40;99.90
54960;DHT22;40860;51.710;8.736;2023-02-13T07:22:21;6.40;99.90
54960;DHT22;40860;51.710;8.736;2023-02-13T07:26:24;6.40;99.90
54960;DHT22;40860;51.710;8.736;2023-02-13T07:30:29;6.40;99.90
54960;DHT22;40860;51.710;8.736;2023-02-13T07:34:32;6.40;99.90
54960;DHT22;40860;51.710;8.736;2023-02-13T07:38:34;6.40;99.90
54960;DHT22;40860;51.710;8.736;2023-02-13T07:42:37;6.40;99.90
54960;DHT22;40860;51.710;8.736;2023-02-13T07:46:41;6.50;99.90
54960;DHT22;40860;51.710;8.736;2023-02-13T07:50:44;6.50;99.90
54960;DHT22;40860;51.710;8.736;2023-02-13T07:54:47;6.50;99.90
54960;DHT22;40860;51.710;8.736;2023-02-13T07:58:50;6.50;99.90
54960;DHT22;40860;51.710;8.736;2023-02-13T08:02:54;6.50;99.90
54960;DHT22;40860;51.710;8.736;2023-02-13T08:06:56;6.50;99.90
54960;DHT22;40860;51.710;8.736;2023-02-13T08:11:02;6.50;99.90
54960;DHT22;40860;51.710;8.736;2023-02-13T08:15:23;6.50;99.90
54960;DHT22;40860;51.710;8.736;2023-02-13T08:19:28;6.50;99.90
54960;DHT22;40860;51.710;8.736;2023-02-13T08:23:30;6.60;99.90
54960;DHT22;40860;51.710;8.736;2023-02-13T08:27:34;6.60;99.90
54960;DHT22;40860;51.710;8.736;2023-02-13T08:31:36;6.60;99.90
54960;DHT22;40860;51.710;8.736;2023-02-13T08:35:41;6.60;99.90
54960;DHT22;40860;51.710;8.736;2023-02-13T08:39:44;6.70;99.90
54960;DHT22;40860;51.710;8.736;2023-02-13T08:43:47;6.80;99.90
54960;DHT22;40860;51.710;8.736;2023-02-13T08:47:50;6.90;99.90
54960;DHT22;40860;51.710;8.736;2023-02-13T08:51:54;6.90;99.90
54960;DHT22;40860;51.710;8.736;2023-02-13T08:55:57;7.00;99.90
54960;DHT22;40860;51.710;8.736;2023-02-13T09:00:00;7.00;99.90
54960;DHT22;40860;51.710;8.736;2023-02-13T09:04:03;7.00;99.90
54960;DHT22;40860;51.710;8.736;2023-02-13T09:08:07;7.10;99.90
54960;DHT22;40860;51.710;8.736;2023-02-13T09:12:12;7.10;99.90
54960;DHT22;40860;51.710;8.736;2023-02-13T09:16:15;7.10;99.90
54960;DHT22;40860;51.710;8.736;2023-02-13T09:20:18;7.20;99.90
54960;DHT22;40860;51.710;8.736;2023-02-13T09:24:22;7.20;99.90
54960;DHT22;40860;51.710;8.736;2023-02-13T09:28:25;7.20;99.90
54960;DHT22;40860;51.710;8.736;2023-02-13T09:32:28;7.20;99.90
54960;DHT22;40860;51.710;8.736;2023-02-13T09:36:30;7.20;99.90
54960;DHT22;40860;51.710;8.736;2023-02-13T09:40:38;7.30;99.90
54960;DHT22;40860;51.710;8.736;2023-02-13T09:44:44;7.20;99.90
54960;DHT22;40860;51.710;8.736;2023-02-13T09:48:50;7.30;99.90
54960;DHT22;40860;51.710;8.736;2023-02-13T09:52:54;7.40;99.90
54960;DHT22;40860;51.710;8.736;2023-02-13T09:57:01;7.40;99.90
54960;DHT22;40860;51.710;8.736;2023-02-13T10:01:17;7.40;99.90
54960;DHT22;40860;51.710;8.736;2023-02-13T10:05:27;7.50;99.90
54960;DHT22;40860;51.710;8.736;2023-02-13T10:09:39;7.50;99.90
54960;DHT22;40860;51.710;8.736;2023-02-13T10:13:55;7.70;99.90
54960;DHT22;40860;51.710;8.736;2023-02-13T10:18:03;7.70;99.90
54960;DHT22;40860;51.710;8.736;2023-02-13T10:22:11;7.80;99.90
54960;DHT22;40860;51.710;8.736;2023-02-13T10:26:18;8.00;99.90
54960;DHT22;40860;51.710;8.736;2023-02-13T10:30:26;8.10;99.90
54960;DHT22;40860;51.710;8.736;2023-02-13T10:34:35;8.30;99.90
54960;DHT22;40860;51.710;8.736;2023-02-13T10:38:42;8.20;99.90
54960;DHT22;40860;51.710;8.736;2023-02-13T10:42:53;8.30;99.90
54960;DHT22;40860;51.710;8.736;2023-02-13T10:47:06;8.30;99.90
54960;DHT22;40860;51.710;8.736;2023-02-13T10:51:15;8.40;99.90
54960;DHT22;40860;51.710;8.736;2023-02-13T10:55:47;8.60;99.90
54960;DHT22;40860;51.710;8.736;2023-02-13T11:00:04;8.60;99.90
54960;DHT22;40860;51.710;8.736;2023-02-13T11:04:10;8.70;99.90
54960;DHT22;40860;51.710;8.736;2023-02-13T11:08:17;8.60;99.70
54960;DHT22;40860;51.710;8.736;2023-02-13T11:12:26;8.60;99.90
54960;DHT22;40860;51.710;8.736;2023-02-13T11:16:37;8.50;99.60
54960;DHT22;40860;51.710;8.736;2023-02-13T11:20:43;8.60;99.70
54960;DHT22;40860;51.710;8.736;2023-02-13T11:24:51;8.90;99.80
54960;DHT22;40860;51.710;8.736;2023-02-13T11:28:57;9.00;99.10
54960;DHT22;40860;51.710;8.736;2023-02-13T11:33:04;9.00;99.10
54960;DHT22;40860;51.710;8.736;2023-02-13T11:37:16;9.00;99.10
54960;DHT22;40860;51.710;8.736;2023-02-13T11:41:19;8.90;99.20
54960;DHT22;40860;51.710;8.736;2023-02-13T11:45:24;8.90;99.10
54960;DHT22;40860;51.710;8.736;2023-02-13T11:49:29;8.90;98.80
54960;DHT22;40860;51.710;8.736;2023-02-13T11:53:37;8.80;99.10
54960;DHT22;40860;51.710;8.736;2023-02-13T11:57:41;9.00;99.40
54960;DHT22;40860;51.710;8.736;2023-02-13T12:01:44;9.10;99.20
54960;DHT22;40860;51.710;8.736;2023-02-13T12:06:03;9.20;99.20
54960;DHT22;40860;51.710;8.736;2023-02-13T12:10:19;9.40;98.70
54960;DHT22;40860;51.710;8.736;2023-02-13T12:14:25;9.50;98.80
54960;DHT22;40860;51.710;8.736;2023-02-13T12:22:46;9.80;97.60
54960;DHT22;40860;51.710;8.736;2023-02-13T12:26:58;9.80;97.50
54960;DHT22;40860;51.710;8.736;2023-02-13T12:31:27;9.90;97.80
54960;DHT22;40860;51.710;8.736;2023-02-13T12:35:40;10.00;97.90
54960;DHT22;40860;51.710;8.736;2023-02-13T12:39:56;10.10;97.60
54960;DHT22;40860;51.710;8.736;2023-02-13T12:44:26;10.20;96.70
54960;DHT22;40860;51.710;8.736;2023-02-13T12:48:37;10.10;96.80
54960;DHT22;40860;51.710;8.736;2023-02-13T12:52:55;10.20;97.60
54960;DHT22;40860;51.710;8.736;2023-02-13T12:57:13;10.30;97.10
54960;DHT22;40860;51.710;8.736;2023-02-13T13:01:32;10.30;97.10
54960;DHT22;40860;51.710;8.736;2023-02-13T13:10:32;10.50;96.20
54960;DHT22;40860;51.710;8.736;2023-02-13T13:14:42;10.50;96.20
54960;DHT22;40860;51.710;8.736;2023-02-13T13:18:57;10.50;95.80
54960;DHT22;40860;51.710;8.736;2023-02-13T13:23:09;10.50;96.30
54960;DHT22;40860;51.710;8.736;2023-02-13T13:27:18;10.60;96.20
54960;DHT22;40860;51.710;8.736;2023-02-13T13:31:23;10.70;96.30
54960;DHT22;40860;51.710;8.736;2023-02-13T13:35:29;10.80;96.40
54960;DHT22;40860;51.710;8.736;2023-02-13T13:39:42;10.90;96.00
54960;DHT22;40860;51.710;8.736;2023-02-13T13:44:01;11.00;95.50
54960;DHT22;40860;51.710;8.736;2023-02-13T13:48:22;11.00;95.50
54960;DHT22;40860;51.710;8.736;2023-02-13T13:52:30;11.00;95.40
54960;DHT22;40860;51.710;8.736;2023-02-13T13:57:08;11.10;95.70
54960;DHT22;40860;51.710;8.736;2023-02-13T14:01:25;11.20;95.40
54960;DHT22;40860;51.710;8.736;2023-02-13T14:05:32;11.20;95.70
54960;DHT22;40860;51.710;8.736;2023-02-13T14:09:38;11.30;95.30
54960;DHT22;40860;51.710;8.736;2023-02-13T14:13:41;11.40;95.60
54960;DHT22;40860;51.710;8.736;2023-02-13T14:18:05;11.40;95.50
54960;DHT22;40860;51.710;8.736;2023-02-13T14:22:30;11.40;95.50
54960;DHT22;40860;51.710;8.736;2023-02-13T14:26:37;11.40;95.40
54960;DHT22;40860;51.710;8.736;2023-02-13T14:30:40;11.40;95.40
54960;DHT22;40860;51.710;8.736;2023-02-13T14:34:51;11.40;95.50
54960;DHT22;40860;51.710;8.736;2023-02-13T14:38:56;11.50;95.60
54960;DHT22;40860;51.710;8.736;2023-02-13T14:43:20;11.60;95.60
54960;DHT22;40860;51.710;8.736;2023-02-13T14:47:28;11.50;95.60
54960;DHT22;40860;51.710;8.736;2023-02-13T14:51:34;11.50;95.70
54960;DHT22;40860;51.710;8.736;2023-02-13T14:55:56;11.60;95.60
54960;DHT22;40860;51.710;8.736;2023-02-13T15:00:05;11.60;95.40
54960;DHT22;40860;51.710;8.736;2023-02-13T15:04:13;11.50;95.40
54960;DHT22;40860;51.710;8.736;2023-02-13T15:08:19;11.50;95.40
54960;DHT22;40860;51.710;8.736;2023-02-13T15:12:28;11.50;95.60
54960;DHT22;40860;51.710;8.736;2023-02-13T15:16:33;11.50;95.60
54960;DHT22;40860;51.710;8.736;2023-02-13T15:20:56;11.50;95.60
54960;DHT22;40860;51.710;8.736;2023-02-13T15:25:01;11.40;95.70
54960;DHT22;40860;51.710;8.736;2023-02-13T15:29:13;11.40;95.70
54960;DHT22;40860;51.710;8.736;2023-02-13T15:33:43;11.40;95.70
54960;DHT22;40860;51.710;8.736;2023-02-13T15:37:51;11.40;95.70
54960;DHT22;40860;51.710;8.736;2023-02-13T15:41:56;11.30;95.60
54960;DHT22;40860;51.710;8.736;2023-02-13T15:46:03;11.30;95.80
54960;DHT22;40860;51.710;8.736;2023-02-13T15:50:17;11.30;95.70
54960;DHT22;40860;51.710;8.736;2023-02-13T15:54:25;11.30;95.70
54960;DHT22;40860;51.710;8.736;2023-02-13T15:58:30;11.30;95.80
54960;DHT22;40860;51.710;8.736;2023-02-13T16:02:41;11.40;95.90
54960;DHT22;40860;51.710;8.736;2023-02-13T16:06:50;11.50;96.00
54960;DHT22;40860;51.710;8.736;2023-02-13T16:11:17;11.50;95.60
54960;DHT22;40860;51.710;8.736;2023-02-13T16:15:22;11.40;95.40
54960;DHT22;40860;51.710;8.736;2023-02-13T16:19:32;11.30;95.70
54960;DHT22;40860;51.710;8.736;2023-02-13T16:23:37;11.20;95.80
54960;DHT22;40860;51.710;8.736;2023-02-13T16:27:42;11.00;95.90
54960;DHT22;40860;51.710;8.736;2023-02-13T16:31:48;10.80;96.20
54960;DHT22;40860;51.710;8.736;2023-02-13T16:35:55;10.60;96.60
54960;DHT22;40860;51.710;8.736;2023-02-13T16:44:41;10.20;97.30
54960;DHT22;40860;51.710;8.736;2023-02-13T16:48:46;10.10;97.60
54960;DHT22;40860;51.710;8.736;2023-02-13T16:52:50;9.90;98.00
54960;DHT22;40860;51.710;8.736;2023-02-13T16:56:55;9.70;98.30
54960;DHT22;40860;51.710;8.736;2023-02-13T17:01:01;9.60;98.80
54960;DHT22;40860;51.710;8.736;2023-02-13T17:05:18;9.50;99.00
54960;DHT22;40860;51.710;8.736;2023-02-13T17:09:22;9.40;99.20
54960;DHT22;40860;51.710;8.736;2023-02-13T17:13:25;9.20;99.30
54960;DHT22;40860;51.710;8.736;2023-02-13T17:17:31;9.10;99.60
54960;DHT22;40860;51.710;8.736;2023-02-13T17:21:34;9.00;99.90
54960;DHT22;40860;51.710;8.736;2023-02-13T17:25:37;8.90;99.90
54960;DHT22;40860;51.710;8.736;2023-02-13T17:29:41;8.80;99.90
54960;DHT22;40860;51.710;8.736;2023-02-13T17:33:46;8.70;99.90
54960;DHT22;40860;51.710;8.736;2023-02-13T17:37:49;8.60;99.90
54960;DHT22;40860;51.710;8.736;2023-02-13T17:41:55;8.50;99.90
54960;DHT22;40860;51.710;8.736;2023-02-13T17:45:58;8.40;99.90
54960;DHT22;40860;51.710;8.736;2023-02-13T17:50:05;8.30;99.90
54960;DHT22;40860;51.710;8.736;2023-02-13T17:54:11;8.20;99.90
54960;DHT22;40860;51.710;8.736;2023-02-13T17:58:14;8.10;99.90
54960;DHT22;40860;51.710;8.736;2023-02-13T18:02:20;8.00;99.90
54960;DHT22;40860;51.710;8.736;2023-02-13T18:06:24;7.90;99.90
54960;DHT22;40860;51.710;8.736;2023-02-13T18:10:29;7.90;99.90
54960;DHT22;40860;51.710;8.736;2023-02-13T18:14:33;7.90;99.90
54960;DHT22;40860;51.710;8.736;2023-02-13T18:18:36;7.80;99.90
54960;DHT22;40860;51.710;8.736;2023-02-13T18:22:41;7.70;99.90
54960;DHT22;40860;51.710;8.736;2023-02-13T18:26:46;7.60;99.90
54960;DHT22;40860;51.710;8.736;2023-02-13T18:30:49;7.40;99.90
54960;DHT22;40860;51.710;8.736;2023-02-13T18:34:52;7.40;99.90
54960;DHT22;40860;51.710;8.736;2023-02-13T18:39:02;7.40;99.90
54960;DHT22;40860;51.710;8.736;2023-02-13T18:43:05;7.30;99.90
54960;DHT22;40860;51.710;8.736;2023-02-13T18:47:08;7.50;99.90
54960;DHT22;40860;51.710;8.736;2023-02-13T18:51:11;7.40;99.90
54960;DHT22;40860;51.710;8.736;2023-02-13T18:55:17;7.40;99.90
54960;DHT22;40860;51.710;8.736;2023-02-13T18:59:20;7.50;99.90
54960;DHT22;40860;51.710;8.736;2023-02-13T19:03:27;7.60;99.90
54960;DHT22;40860;51.710;8.736;2023-02-13T19:07:33;7.50;99.90
54960;DHT22;40860;51.710;8.736;2023-02-13T19:11:39;7.30;99.90
54960;DHT22;40860;51.710;8.736;2023-02-13T19:15:43;7.20;99.90
54960;DHT22;40860;51.710;8.736;2023-02-13T19:19:46;7.10;99.90
54960;DHT22;40860;51.710;8.736;2023-02-13T19:23:55;7.00;99.90
54960;DHT22;40860;51.710;8.736;2023-02-13T19:27:59;6.90;99.90
54960;DHT22;40860;51.710;8.736;2023-02-13T19:32:03;6.70;99.90
54960;DHT22;40860;51.710;8.736;2023-02-13T19:36:08;6.50;99.90
54960;DHT22;40860;51.710;8.736;2023-02-13T19:40:12;6.50;99.90
54960;DHT22;40860;51.710;8.736;2023-02-13T19:44:18;6.40;99.90
54960;DHT22;40860;51.710;8.736;2023-02-13T19:48:21;6.30;99.90
54960;DHT22;40860;51.710;8.736;2023-02-13T19:52:27;6.20;99.90
54960;DHT22;40860;51.710;8.736;2023-02-13T19:56:30;6.20;99.90
54960;DHT22;40860;51.710;8.736;2023-02-13T20:00:35;6.10;99.90
54960;DHT22;40860;51.710;8.736;2023-02-13T20:04:38;6.00;99.90
54960;DHT22;40860;51.710;8.736;2023-02-13T20:08:42;5.80;99.90
54960;DHT22;40860;51.710;8.736;2023-02-13T20:12:46;5.60;99.90
54960;DHT22;40860;51.710;8.736;2023-02-13T20:16:55;5.60;99.90
54960;DHT22;40860;51.710;8.736;2023-02-13T20:20:58;5.60;99.90
54960;DHT22;40860;51.710;8.736;2023-02-13T20:25:02;5.60;99.90
54960;DHT22;40860;51.710;8.736;2023-02-13T20:29:06;5.50;99.90
54960;DHT22;40860;51.710;8.736;2023-02-13T20:33:10;5.30;99.90
54960;DHT22;40860;51.710;8.736;2023-02-13T20:37:13;5.20;99.90
54960;DHT22;40860;51.710;8.736;2023-02-13T20:41:18;5.10;99.90
54960;DHT22;40860;51.710;8.736;2023-02-13T20:45:21;5.00;99.90
54960;DHT22;40860;51.710;8.736;2023-02-13T20:49:26;4.90;99.90
54960;DHT22;40860;51.710;8.736;2023-02-13T20:53:30;4.90;99.90
54960;DHT22;40860;51.710;8.736;2023-02-13T20:57:34;4.80;99.90
54960;DHT22;40860;51.710;8.736;2023-02-13T21:01:38;4.80;99.90
54960;DHT22;40860;51.710;8.736;2023-02-13T21:05:46;4.70;99.90
54960;DHT22;40860;51.710;8.736;2023-02-13T21:09:49;4.60;99.90
54960;DHT22;40860;51.710;8.736;2023-02-13T21:13:52;4.60;99.90
54960;DHT22;40860;51.710;8.736;2023-02-13T21:17:55;4.60;99.90
54960;DHT22;40860;51.710;8.736;2023-02-13T21:21:59;4.50;99.90
54960;DHT22;40860;51.710;8.736;2023-02-13T21:26:14;4.50;99.90
54960;DHT22;40860;51.710;8.736;2023-02-13T21:30:18;4.40;99.90
54960;DHT22;40860;51.710;8.736;2023-02-13T21:34:21;4.40;99.90
54960;DHT22;40860;51.710;8.736;2023-02-13T21:38:29;4.40;99.90
54960;DHT22;40860;51.710;8.736;2023-02-13T21:42:32;4.40;99.90
54960;DHT22;40860;51.710;8.736;2023-02-13T21:46:35;4.30;99.90
54960;DHT22;40860;51.710;8.736;2023-02-13T21:50:38;4.20;99.90
54960;DHT22;40860;51.710;8.736;2023-02-13T21:54:42;4.20;99.90
54960;DHT22;40860;51.710;8.736;2023-02-13T21:58:46;4.20;99.90
54960;DHT22;40860;51.710;8.736;2023-02-13T22:02:50;4.00;99.90
54960;DHT22;40860;51.710;8.736;2023-02-13T22:06:53;3.90;99.90
54960;DHT22;40860;51.710;8.736;2023-02-13T22:10:58;4.00;99.90
54960;DHT22;40860;51.710;8.736;2023-02-13T22:15:01;3.90;99.90
54960;DHT22;40860;51.710;8.736;2023-02-13T22:19:05;3.80;99.90
54960;DHT22;40860;51.710;8.736;2023-02-13T22:23:08;3.80;99.90
54960;DHT22;40860;51.710;8.736;2023-02-13T22:27:13;3.70;99.90
54960;DHT22;40860;51.710;8.736;2023-02-13T22:31:16;3.60;99.90
54960;DHT22;40860;51.710;8.736;2023-02-13T22:35:20;3.60;99.90
54960;DHT22;40860;51.710;8.736;2023-02-13T22:39:23;3.60;99.90
54960;DHT22;40860;51.710;8.736;2023-02-13T22:43:27;3.60;99.90
54960;DHT22;40860;51.710;8.736;2023-02-13T22:47:30;3.50;99.90
54960;DHT22;40860;51.710;8.736;2023-02-13T22:51:34;3.50;99.90
54960;DHT22;40860;51.710;8.736;2023-02-13T22:55:37;3.50;99.90
54960;DHT22;40860;51.710;8.736;2023-02-13T22:59:41;3.40;99.90
54960;DHT22;40860;51.710;8.736;2023-02-13T23:03:45;3.40;99.90
54960;DHT22;40860;51.710;8.736;2023-02-13T23:07:48;3.40;99.90
54960;DHT22;40860;51.710;8.736;2023-02-13T23:11:51;3.30;99.90
54960;DHT22;40860;51.710;8.736;2023-02-13T23:16:13;3.30;99.90
54960;DHT22;40860;51.710;8.736;2023-02-13T23:20:18;3.20;99.90
54960;DHT22;40860;51.710;8.736;2023-02-13T23:24:22;3.20;99.90
54960;DHT22;40860;51.710;8.736;2023-02-13T23:28:27;3.20;99.90
54960;DHT22;40860;51.710;8.736;2023-02-13T23:32:34;3.20;99.90
54960;DHT22;40860;51.710;8.736;2023-02-13T23:36:44;3.20;99.90
54960;DHT22;40860;51.710;8.736;2023-02-13T23:40:48;3.20;99.90
54960;DHT22;40860;51.710;8.736;2023-02-13T23:45:00;3.10;99.90
54960;DHT22;40860;51.710;8.736;2023-02-13T23:49:07;3.00;99.90
54960;DHT22;40860;51.710;8.736;2023-02-13T23:53:10;3.00;99.90
54960;DHT22;40860;51.710;8.736;2023-02-13T23:57:17;3.00;99.90
